Time;durP1;ratioP1;P1;durP2;ratioP2;P2;SDS_P1;SDS_P2;PMS_P1;PMS_P2;Temp;Humidity;BMP_temperature;BMP_pressure;BME280_temperature;BME280_humidity;BME280_pressure;Samples;Min_cycle;Max_cycle;Signal;HPM_P1;HPM_P2
2022/09/23 00:00:59;;;;;;;6.85;2.83;;;9.10;99.90;;;;;;5071376;28;20066;-87
2022/09/23 00:03:27;;;;;;;3.92;2.92;;;9.00;99.90;;;;;;5095799;28;20032;-88
2022/09/23 00:06:06;;;;;;;4.80;3.22;;;9.10;99.90;;;;;;5100974;28;20028;-87
2022/09/23 00:08:32;;;;;;;5.53;3.15;;;9.00;99.90;;;;;;5112573;28;20054;-89
2022/09/23 00:11:07;;;;;;;6.57;3.30;;;9.00;99.90;;;;;;5114727;28;20073;-88
2022/09/23 00:13:34;;;;;;;5.18;3.47;;;9.00;99.90;;;;;;5113803;28;20020;-88
2022/09/23 00:16:09;;;;;;;7.07;3.38;;;8.90;99.90;;;;;;5113277;28;20032;-89
2022/09/23 00:18:35;;;;;;;5.47;3.90;;;8.90;99.90;;;;;;5112499;28;20086;-88
2022/09/23 00:21:06;;;;;;;9.07;4.25;;;8.90;99.90;;;;;;5094812;28;20029;-87
2022/09/23 00:23:32;;;;;;;5.40;3.80;;;8.90;99.90;;;;;;5092684;28;20084;-88
2022/09/23 00:26:01;;;;;;;5.75;4.00;;;8.90;99.90;;;;;;5091075;28;20005;-88
2022/09/23 00:28:27;;;;;;;7.13;3.95;;;8.90;99.90;;;;;;5090031;28;20032;-87
2022/09/23 00:30:53;;;;;;;7.43;3.33;;;8.80;99.90;;;;;;5094293;28;20008;-88
2022/09/23 00:33:19;;;;;;;11.02;3.88;;;8.80;99.90;;;;;;5097726;28;20099;-88
2022/09/23 00:35:46;;;;;;;8.13;3.60;;;8.80;99.90;;;;;;5093428;28;20043;-89
2022/09/23 00:38:13;;;;;;;7.70;4.88;;;8.80;99.90;;;;;;5094007;28;20036;-88
2022/09/23 00:40:45;;;;;;;7.47;4.15;;;8.80;99.90;;;;;;5092313;28;20035;-88
2022/09/23 00:43:14;;;;;;;5.30;3.63;;;8.80;99.90;;;;;;5097254;28;20043;-88
2022/09/23 00:45:46;;;;;;;5.60;4.00;;;8.80;99.90;;;;;;5101358;28;20024;-88
2022/09/23 00:48:18;;;;;;;11.82;3.47;;;8.80;99.90;;;;;;5116503;28;20040;-88
2022/09/23 00:50:51;;;;;;;6.07;3.40;;;8.80;99.90;;;;;;5117924;28;20116;-88
2022/09/23 00:53:21;;;;;;;5.30;3.33;;;8.80;99.90;;;;;;5118341;28;20046;-88
2022/09/23 00:55:51;;;;;;;5.65;3.35;;;8.80;99.90;;;;;;5099027;28;20047;-86
2022/09/23 00:58:21;;;;;;;5.18;3.30;;;8.70;99.90;;;;;;5097628;28;20148;-86
2022/09/23 01:00:47;;;;;;;7.90;3.22;;;8.70;99.90;;;;;;5109797;28;20016;-85
2022/09/23 01:03:13;;;;;;;9.10;3.40;;;8.60;99.90;;;;;;5100985;28;20046;-87
2022/09/23 01:05:40;;;;;;;6.72;3.90;;;8.70;99.90;;;;;;5098374;28;20012;-86
2022/09/23 01:08:09;;;;;;;5.65;3.80;;;8.60;99.90;;;;;;5114775;28;20127;-86
2022/09/23 01:10:39;;;;;;;6.25;4.00;;;8.60;99.90;;;;;;5119623;28;20022;-85
2022/09/23 01:13:37;;;;;;;6.65;4.32;;;8.60;99.90;;;;;;5118358;28;20072;-86
2022/09/23 01:16:32;;;;;;;8.30;4.40;;;8.50;99.90;;;;;;5110063;28;20048;-85
2022/09/23 01:19:07;;;;;;;;;;;8.40;99.90;;;;;;5098803;28;20051;-87
2022/09/23 01:21:51;;;;;;;8.67;3.70;;;8.40;99.90;;;;;;5098273;28;19896;-86
2022/09/23 01:24:30;;;;;;;6.32;4.15;;;8.40;99.90;;;;;;5098227;28;20079;-89
2022/09/23 01:27:13;;;;;;;5.10;4.00;;;8.30;99.90;;;;;;5091993;28;20455;-88
2022/09/23 01:29:44;;;;;;;7.68;4.35;;;8.30;99.90;;;;;;5085802;28;20032;-87
2022/09/23 01:32:25;;;;;;;7.28;4.07;;;8.30;99.90;;;;;;5100559;28;20142;-87
2022/09/23 01:34:54;;;;;;;6.65;4.18;;;8.20;99.90;;;;;;5119356;28;20028;-90
2022/09/23 01:37:28;;;;;;;8.52;4.30;;;8.20;99.90;;;;;;5093309;28;20047;-88
2022/09/23 01:40:13;;;;;;;10.90;4.57;;;8.20;99.90;;;;;;5093379;28;20047;-87
2022/09/23 01:43:04;;;;;;;;;;;8.20;99.90;;;;;;5095563;28;20279;-87
2022/09/23 01:45:41;;;;;;;5.65;4.30;;;8.10;99.90;;;;;;5071955;28;19944;-88
2022/09/23 01:48:20;;;;;;;8.52;4.20;;;8.10;99.90;;;;;;5071919;28;20123;-89
2022/09/23 01:51:10;;;;;;;8.45;4.60;;;8.10;99.90;;;;;;5087110;28;20062;-88
2022/09/23 01:53:48;;;;;;;10.65;5.40;;;8.10;99.90;;;;;;5086091;28;20058;-86
2022/09/23 01:56:38;;;;;;;8.00;4.65;;;8.10;99.90;;;;;;5086460;28;20059;-88
2022/09/23 01:59:20;;;;;;;8.70;4.78;;;8.10;99.90;;;;;;5085111;28;20029;-89
2022/09/23 02:02:30;;;;;;;7.07;4.45;;;8.10;99.90;;;;;;5093210;28;20020;-89
2022/09/23 02:05:09;;;;;;;7.82;4.82;;;8.10;99.90;;;;;;5073534;28;20050;-87
2022/09/23 02:07:38;;;;;;;7.20;4.20;;;8.10;99.90;;;;;;5088818;28;20033;-87
2022/09/23 02:10:17;;;;;;;10.70;4.78;;;8.10;99.90;;;;;;5087850;28;20020;-88
2022/09/23 02:12:48;;;;;;;5.22;3.72;;;8.00;99.90;;;;;;5102223;28;20066;-87
2022/09/23 02:15:21;;;;;;;5.70;3.55;;;8.00;99.90;;;;;;5108935;28;20051;-88
2022/09/23 02:17:57;;;;;;;7.20;4.53;;;7.90;99.90;;;;;;5107878;28;20045;-87
2022/09/23 02:20:29;;;;;;;5.45;3.88;;;7.90;99.90;;;;;;5085717;28;20021;-86
2022/09/23 02:23:21;;;;;;;5.25;3.97;;;7.90;99.90;;;;;;5087005;28;20108;-88
2022/09/23 02:26:07;;;;;;;6.22;4.45;;;7.90;99.90;;;;;;5084641;28;20115;-87
2022/09/23 02:28:53;;;;;;;6.22;4.20;;;7.90;99.90;;;;;;5084806;28;20099;-88
2022/09/23 02:31:47;;;;;;;7.15;4.43;;;7.80;99.90;;;;;;5081836;28;20111;-88
2022/09/23 02:34:44;;;;;;;4.53;3.88;;;7.80;99.90;;;;;;5092787;28;20119;-87
2022/09/23 02:37:26;;;;;;;5.53;3.92;;;7.80;99.90;;;;;;5086191;28;20122;-90
2022/09/23 02:40:11;;;;;;;9.30;5.05;;;7.70;99.90;;;;;;5084813;28;20028;-87
2022/09/23 02:42:49;;;;;;;;;;;7.70;99.90;;;;;;5103153;28;20016;-88
2022/09/23 02:45:15;;;;;;;6.57;4.28;;;7.70;99.90;;;;;;5105958;28;19924;-89
2022/09/23 02:47:44;;;;;;;5.43;4.10;;;7.70;99.90;;;;;;5092155;28;20024;-89
2022/09/23 02:50:10;;;;;;;10.57;4.38;;;7.80;99.90;;;;;;5107092;28;20039;-85
2022/09/23 02:52:37;;;;;;;6.88;3.95;;;7.80;99.90;;;;;;5098319;28;20037;-86
2022/09/23 02:55:07;;;;;;;6.15;4.03;;;7.80;99.90;;;;;;5092391;28;20059;-85
2022/09/23 02:57:33;;;;;;;8.15;4.57;;;7.80;99.90;;;;;;5097812;28;20028;-87
2022/09/23 03:00:01;;;;;;;8.27;4.22;;;7.70;99.90;;;;;;5107331;28;20025;-86
2022/09/23 03:03:03;;;;;;;15.45;4.78;;;7.70;99.90;;;;;;5111032;28;20012;-86
2022/09/23 03:05:33;;;;;;;11.50;4.53;;;7.70;99.90;;;;;;5100376;28;20040;-86
2022/09/23 03:08:21;;;;;;;7.00;3.90;;;7.70;99.90;;;;;;5117254;28;20020;-85
2022/09/23 03:11:07;;;;;;;7.75;4.20;;;7.70;99.90;;;;;;5121291;27;20016;-85
2022/09/23 03:13:54;;;;;;;7.15;4.47;;;7.60;99.90;;;;;;5101626;28;20031;-86
2022/09/23 03:16:43;;;;;;;8.27;4.78;;;7.60;99.90;;;;;;5101019;28;20040;-87
2022/09/23 03:19:31;;;;;;;6.90;4.15;;;7.60;99.90;;;;;;5101041;28;20048;-85
2022/09/23 03:21:57;;;;;;;6.25;4.63;;;7.70;99.90;;;;;;5111321;28;20031;-86
2022/09/23 03:24:24;;;;;;;6.72;4.43;;;7.60;99.90;;;;;;5121702;27;20012;-85
2022/09/23 03:26:52;;;;;;;10.80;4.90;;;7.60;99.90;;;;;;5121816;28;20031;-85
2022/09/23 03:29:20;;;;;;;6.00;4.50;;;7.60;99.90;;;;;;5104557;28;20057;-85
2022/09/23 03:31:46;;;;;;;7.45;4.85;;;7.60;99.90;;;;;;5121755;28;20028;-85
2022/09/23 03:34:17;;;;;;;7.35;5.28;;;7.60;99.90;;;;;;5122096;28;20008;-85
2022/09/23 03:36:55;;;;;;;8.77;4.97;;;7.60;99.90;;;;;;5121597;28;20039;-85
2022/09/23 03:39:41;;;;;;;8.93;5.38;;;7.50;99.90;;;;;;5121160;28;20052;-86
2022/09/23 03:42:23;;;;;;;8.73;5.28;;;7.50;99.90;;;;;;5110882;28;20041;-85
2022/09/23 03:44:56;;;;;;;8.73;5.28;;;7.60;99.90;;;;;;5100549;28;20053;-87
2022/09/23 03:47:25;;;;;;;9.25;5.43;;;7.60;99.90;;;;;;5100900;28;20036;-86
2022/09/23 03:49:51;;;;;;;9.18;6.00;;;7.60;99.90;;;;;;5096333;28;20078;-87
2022/09/23 03:52:19;;;;;;;9.13;5.25;;;7.60;99.90;;;;;;5104167;28;20024;-86
2022/09/23 03:54:45;;;;;;;7.70;5.70;;;7.50;99.90;;;;;;5104280;28;20032;-84
2022/09/23 03:57:12;;;;;;;8.15;5.07;;;7.60;99.90;;;;;;5096097;28;20025;-83
2022/09/23 03:59:38;;;;;;;11.00;5.68;;;7.60;99.90;;;;;;5094391;28;20013;-87
2022/09/23 04:02:06;;;;;;;10.70;5.07;;;7.50;99.90;;;;;;5112791;28;20035;-84
2022/09/23 04:04:34;;;;;;;8.35;5.03;;;7.50;99.90;;;;;;5120450;28;20087;-83
2022/09/23 04:07:01;;;;;;;7.78;4.93;;;7.40;99.90;;;;;;5114874;28;20475;-86
2022/09/23 04:09:27;;;;;;;9.77;5.75;;;7.50;99.90;;;;;;5114584;28;20024;-85
2022/09/23 04:11:53;;;;;;;10.85;5.63;;;7.40;99.90;;;;;;5117354;28;20031;-85
2022/09/23 04:14:20;;;;;;;12.45;6.05;;;7.40;99.90;;;;;;5120255;28;20016;-82
2022/09/23 04:16:47;;;;;;;10.48;6.55;;;7.30;99.90;;;;;;5120255;28;20058;-85
2022/09/23 04:19:13;;;;;;;8.82;6.43;;;7.30;99.90;;;;;;5118943;28;20021;-85
2022/09/23 04:21:41;;;;;;;13.85;6.30;;;7.30;99.90;;;;;;5110635;28;20016;-88
2022/09/23 04:24:08;;;;;;;9.05;6.50;;;7.30;99.90;;;;;;5093081;28;20031;-87
2022/09/23 04:26:34;;;;;;;11.25;6.70;;;7.30;99.90;;;;;;5094566;28;20031;-86
2022/09/23 04:29:01;;;;;;;11.25;6.82;;;7.30;99.90;;;;;;5094063;28;20050;-87
2022/09/23 04:31:27;;;;;;;11.85;6.47;;;7.30;99.90;;;;;;5096874;28;20054;-88
2022/09/23 04:33:54;;;;;;;10.98;7.00;;;7.20;99.90;;;;;;5105995;28;20001;-89
2022/09/23 04:36:20;;;;;;;11.18;7.47;;;7.20;99.90;;;;;;5092213;28;20025;-88
2022/09/23 04:38:48;;;;;;;15.65;7.70;;;7.20;99.90;;;;;;5091533;28;20428;-88
2022/09/23 04:41:15;;;;;;;13.98;7.57;;;7.20;99.90;;;;;;5091745;28;20038;-87
2022/09/23 04:43:41;;;;;;;11.60;8.00;;;7.10;99.90;;;;;;5095368;28;20031;-87
2022/09/23 04:46:11;;;;;;;13.20;8.02;;;7.10;99.90;;;;;;5098223;28;20009;-86
2022/09/23 04:48:40;;;;;;;13.05;7.50;;;7.10;99.90;;;;;;5098114;28;20028;-88
2022/09/23 04:51:18;;;;;;;10.95;7.53;;;7.10;99.90;;;;;;5099552;28;20056;-86
2022/09/23 04:53:46;;;;;;;14.07;8.27;;;7.10;99.90;;;;;;5099766;28;20080;-84
2022/09/23 04:56:19;;;;;;;13.32;8.48;;;7.00;99.90;;;;;;5082284;28;20223;-85
2022/09/23 04:58:46;;;;;;;14.10;7.50;;;6.90;99.90;;;;;;5098601;28;20044;-85
2022/09/23 05:01:28;;;;;;;18.40;8.35;;;6.90;99.90;;;;;;5099459;28;20016;-85
2022/09/23 05:04:01;;;;;;;14.00;8.45;;;6.90;99.90;;;;;;5098968;28;20045;-86
2022/09/23 05:06:30;;;;;;;15.07;8.65;;;6.80;99.90;;;;;;5098896;28;20096;-85
2022/09/23 05:08:57;;;;;;;18.40;8.70;;;6.80;99.90;;;;;;5108088;28;20069;-85
2022/09/23 05:11:24;;;;;;;12.93;7.97;;;6.80;99.90;;;;;;5116066;28;20043;-84
2022/09/23 05:13:52;;;;;;;15.30;8.43;;;6.80;99.90;;;;;;5110825;28;20032;-84
2022/09/23 05:16:19;;;;;;;27.25;8.82;;;6.90;99.90;;;;;;5119401;28;20023;-86
2022/09/23 05:18:45;;;;;;;19.73;8.95;;;6.90;99.90;;;;;;5100101;28;20035;-86
2022/09/23 05:21:17;;;;;;;20.80;9.38;;;6.90;99.90;;;;;;5094089;28;20031;-86
2022/09/23 05:23:53;;;;;;;16.33;9.02;;;7.00;99.90;;;;;;5077794;28;20037;-85
2022/09/23 05:26:22;;;;;;;17.23;9.40;;;7.00;99.90;;;;;;5083772;28;20046;-84
2022/09/23 05:28:47;;;;;;;19.88;9.45;;;7.00;99.90;;;;;;5093345;28;20044;-84
2022/09/23 05:31:19;;;;;;;16.23;9.93;;;7.10;99.90;;;;;;5093678;28;20090;-85
2022/09/23 05:33:50;;;;;;;13.77;9.05;;;7.20;99.90;;;;;;5093855;28;20190;-86
2022/09/23 05:36:17;;;;;;;15.00;8.80;;;7.30;99.90;;;;;;5092168;28;20036;-86
2022/09/23 05:38:44;;;;;;;12.88;7.70;;;7.40;99.90;;;;;;5094860;28;20092;-84
2022/09/23 05:41:12;;;;;;;10.73;7.78;;;7.50;99.90;;;;;;5089321;28;20040;-88
2022/09/23 05:43:38;;;;;;;12.68;6.82;;;7.60;99.90;;;;;;5078618;28;20103;-88
2022/09/23 05:46:07;;;;;;;11.88;6.63;;;7.60;99.90;;;;;;5085171;28;20021;-84
2022/09/23 05:48:34;;;;;;;8.65;6.63;;;7.70;99.90;;;;;;5096115;28;20051;-85
2022/09/23 05:51:01;;;;;;;9.60;6.47;;;7.70;99.90;;;;;;5094936;28;20488;-85
2022/09/23 05:53:28;;;;;;;9.75;6.90;;;7.70;99.90;;;;;;5078084;28;20017;-85
2022/09/23 05:55:57;;;;;;;8.90;6.30;;;7.80;99.90;;;;;;5091699;28;20043;-86
2022/09/23 05:58:23;;;;;;;10.83;7.37;;;7.80;99.90;;;;;;5108545;22;20036;-83
2022/09/23 06:00:50;;;;;;;10.25;6.50;;;7.90;99.90;;;;;;5065288;28;20044;-84
2022/09/23 06:03:18;;;;;;;9.45;6.85;;;8.00;99.90;;;;;;5068329;28;20059;-84
2022/09/23 06:05:45;;;;;;;13.32;6.80;;;8.00;99.90;;;;;;5070810;28;20021;-82
2022/09/23 06:08:11;;;;;;;13.18;7.10;;;8.00;99.90;;;;;;5062280;28;20037;-84
2022/09/23 06:10:55;;;;;;;8.48;5.72;;;8.10;99.90;;;;;;5088667;28;20395;-84
2022/09/23 06:13:20;;;;;;;9.40;6.78;;;8.20;99.90;;;;;;5078553;28;20047;-84
2022/09/23 06:15:47;;;;;;;11.90;7.05;;;8.30;99.90;;;;;;5083688;28;20027;-84
2022/09/23 06:18:12;;;;;;;16.02;6.57;;;8.30;99.90;;;;;;5078376;28;20101;-83
2022/09/23 06:20:38;;;;;;;8.88;6.80;;;8.30;99.90;;;;;;5078017;28;20029;-84
2022/09/23 06:23:07;;;;;;;13.95;6.75;;;8.40;99.90;;;;;;5063717;28;20535;-83
2022/09/23 06:25:34;;;;;;;16.52;7.53;;;8.40;99.90;;;;;;5071642;28;20012;-83
2022/09/23 06:28:00;;;;;;;14.85;8.05;;;8.40;99.90;;;;;;5070561;28;20025;-84
2022/09/23 06:30:27;;;;;;;13.50;7.22;;;8.40;99.90;;;;;;5074250;28;20357;-82
2022/09/23 06:32:54;;;;;;;10.70;6.55;;;8.50;99.90;;;;;;5076836;28;20098;-84
2022/09/23 06:35:23;;;;;;;9.52;6.68;;;8.60;99.90;;;;;;5072158;28;20008;-84
2022/09/23 06:37:48;;;;;;;9.80;6.55;;;8.60;99.90;;;;;;5078928;28;20021;-84
2022/09/23 06:40:14;;;;;;;11.45;7.13;;;8.70;99.90;;;;;;5081196;28;20504;-85
2022/09/23 06:42:41;;;;;;;9.90;6.50;;;8.70;99.90;;;;;;5073270;28;20033;-84
2022/09/23 06:45:11;;;;;;;13.65;7.13;;;8.80;99.90;;;;;;5075201;28;20021;-84
2022/09/23 06:47:38;;;;;;;11.50;7.65;;;8.80;99.90;;;;;;5079104;28;20025;-84
2022/09/23 06:50:05;;;;;;;12.13;8.13;;;8.90;99.90;;;;;;5075956;28;20035;-84
2022/09/23 06:52:31;;;;;;;11.20;6.78;;;9.00;99.90;;;;;;5084229;28;20437;-83
2022/09/23 06:54:57;;;;;;;14.02;6.60;;;9.00;99.90;;;;;;5087626;28;20036;-83
2022/09/23 06:57:23;;;;;;;12.98;7.55;;;9.10;99.90;;;;;;5077096;28;20059;-84
2022/09/23 06:59:49;;;;;;;15.65;7.35;;;9.10;99.90;;;;;;5072294;28;20045;-84
2022/09/23 07:02:15;;;;;;;10.30;7.07;;;9.20;99.90;;;;;;5085204;28;20037;-84
2022/09/23 07:04:41;;;;;;;13.80;7.28;;;9.30;99.90;;;;;;5081236;28;20024;-83
2022/09/23 07:07:07;;;;;;;12.80;7.22;;;9.50;99.90;;;;;;5070429;28;20040;-84
2022/09/23 07:09:32;;;;;;;12.73;7.53;;;9.60;99.90;;;;;;5071367;28;20036;-82
2022/09/23 07:11:58;;;;;;;10.88;6.88;;;9.70;99.90;;;;;;5079780;28;20044;-84
2022/09/23 07:14:24;;;;;;;13.18;7.05;;;9.80;99.90;;;;;;5076430;28;20020;-84
2022/09/23 07:16:52;;;;;;;11.50;7.05;;;9.90;99.90;;;;;;5077765;28;20024;-86
2022/09/23 07:19:18;;;;;;;15.57;7.30;;;10.00;99.90;;;;;;5078660;28;20067;-86
2022/09/23 07:21:43;;;;;;;14.70;7.50;;;10.20;99.90;;;;;;5074024;28;20029;-85
2022/09/23 07:24:09;;;;;;;10.38;6.82;;;10.20;99.90;;;;;;5058845;28;20051;-84
2022/09/23 07:26:35;;;;;;;15.30;7.07;;;10.30;99.90;;;;;;5068844;28;20051;-83
2022/09/23 07:29:03;;;;;;;11.25;7.55;;;10.40;99.90;;;;;;5067144;28;20047;-84
2022/09/23 07:31:33;;;;;;;11.63;6.65;;;10.50;99.90;;;;;;5060286;28;20069;-83
2022/09/23 07:34:00;;;;;;;28.20;7.30;;;10.70;99.90;;;;;;5059742;28;20029;-84
2022/09/23 07:36:27;;;;;;;18.55;8.45;;;10.80;99.90;;;;;;5057281;28;20025;-84
2022/09/23 07:39:02;;;;;;;21.50;8.18;;;10.90;99.90;;;;;;5073409;28;20064;-84
2022/09/23 07:41:29;;;;;;;19.60;8.57;;;11.00;99.90;;;;;;5059067;28;20032;-84
2022/09/23 07:44:00;;;;;;;13.23;7.72;;;11.10;99.90;;;;;;5072588;28;20040;-86
2022/09/23 07:46:30;;;;;;;14.82;8.05;;;11.20;99.90;;;;;;5065672;28;20034;-82
2022/09/23 07:48:57;;;;;;;13.20;8.13;;;11.30;99.90;;;;;;5071810;28;20410;-82
2022/09/23 07:51:26;;;;;;;17.95;8.00;;;11.40;99.90;;;;;;5077644;28;20035;-82
2022/09/23 07:53:54;;;;;;;17.27;7.70;;;11.40;99.90;;;;;;5074965;28;20276;-83
2022/09/23 07:56:22;;;;;;;11.52;7.70;;;11.50;99.90;;;;;;5066450;28;20112;-82
2022/09/23 07:59:02;;;;;;;11.80;8.10;;;11.50;99.90;;;;;;5068001;28;20038;-83
2022/09/23 08:01:37;;;;;;;17.58;8.23;;;11.60;99.90;;;;;;5070716;28;20040;-84
2022/09/23 08:04:06;;;;;;;14.20;7.45;;;11.60;99.90;;;;;;5058864;28;20060;-84
2022/09/23 08:06:32;;;;;;;11.40;7.00;;;11.70;99.90;;;;;;5066882;28;20370;-84
2022/09/23 08:08:59;;;;;;;19.17;7.32;;;11.90;99.90;;;;;;5057585;28;20025;-83
2022/09/23 08:11:26;;;;;;;11.57;6.63;;;12.00;99.90;;;;;;5069036;28;20026;-84
2022/09/23 08:13:53;;;;;;;11.43;6.70;;;12.10;99.90;;;;;;5063728;28;20049;-85
2022/09/23 08:16:20;;;;;;;11.32;5.90;;;12.20;99.90;;;;;;5065688;28;20036;-83
2022/09/23 08:18:46;;;;;;;7.53;5.38;;;12.30;99.90;;;;;;5053808;28;20037;-83
2022/09/23 08:21:17;;;;;;;13.63;4.97;;;12.40;99.90;;;;;;5063660;28;20029;-84
2022/09/23 08:23:43;;;;;;;11.57;5.55;;;12.40;99.90;;;;;;5069466;28;20076;-85
2022/09/23 08:26:08;;;;;;;10.32;5.72;;;12.40;99.90;;;;;;5060640;28;20028;-84
2022/09/23 08:28:34;;;;;;;8.25;5.10;;;12.50;99.90;;;;;;5054139;28;20183;-85
2022/09/23 08:31:00;;;;;;;12.40;4.90;;;12.50;99.90;;;;;;5060047;28;20061;-84
2022/09/23 08:33:26;;;;;;;8.98;4.80;;;12.50;99.90;;;;;;5055808;28;20032;-84
2022/09/23 08:35:57;;;;;;;8.93;4.97;;;12.50;99.90;;;;;;5063400;28;20101;-84
2022/09/23 08:38:23;;;;;;;8.38;4.95;;;12.60;99.90;;;;;;5061966;28;20104;-84
2022/09/23 08:40:49;;;;;;;9.60;5.82;;;12.60;99.90;;;;;;5056495;28;20020;-83
2022/09/23 08:43:27;;;;;;;12.48;5.60;;;12.70;99.90;;;;;;5063796;28;20041;-88
2022/09/23 08:45:56;;;;;;;8.90;5.70;;;12.90;99.90;;;;;;5045762;28;20025;-83
2022/09/23 08:48:32;;;;;;;8.82;5.40;;;13.00;99.90;;;;;;5059887;28;20069;-84
2022/09/23 08:51:05;;;;;;;9.95;5.65;;;13.10;99.90;;;;;;5061047;28;20131;-85
2022/09/23 08:53:37;;;;;;;8.52;5.68;;;13.40;99.90;;;;;;5057521;28;20027;-86
2022/09/23 08:56:09;;;;;;;9.25;5.55;;;13.90;99.90;;;;;;5053569;28;20029;-84
2022/09/23 08:59:04;;;;;;;9.88;5.53;;;14.60;99.90;;;;;;5052232;28;20029;-84
2022/09/23 09:01:40;;;;;;;9.17;5.20;;;15.50;99.90;;;;;;5059871;28;20021;-85
2022/09/23 09:04:23;;;;;;;7.78;4.88;;;16.70;99.90;;;;;;5054634;28;20082;-83
2022/09/23 09:07:12;;;;;;;7.25;4.82;;;17.20;99.90;;;;;;5056813;28;20033;-84
2022/09/23 09:09:56;;;;;;;8.50;4.75;;;17.80;99.90;;;;;;5050929;28;20037;-82
2022/09/23 09:12:37;;;;;;;8.27;5.65;;;18.90;99.80;;;;;;5061519;28;20047;-84
2022/09/23 09:15:06;;;;;;;18.73;5.00;;;18.80;99.40;;;;;;5049936;28;20020;-84
2022/09/23 09:17:37;;;;;;;6.75;4.63;;;20.70;97.40;;;;;;5050112;28;20018;-85
2022/09/23 09:20:04;;;;;;;10.13;4.40;;;22.10;94.70;;;;;;5064138;28;20238;-85
2022/09/23 09:22:48;;;;;;;8.18;5.28;;;23.70;91.80;;;;;;5049416;28;20143;-85
2022/09/23 09:25:40;;;;;;;7.10;3.88;;;24.70;86.80;;;;;;5051261;28;20085;-84
2022/09/23 09:28:36;;;;;;;14.90;4.25;;;26.20;81.40;;;;;;5050248;28;20641;-83
2022/09/23 09:31:14;;;;;;;8.00;4.57;;;27.30;77.50;;;;;;5061813;28;20029;-84
2022/09/23 09:33:56;;;;;;;7.25;3.53;;;27.30;73.30;;;;;;5060989;28;20040;-82
2022/09/23 09:36:43;;;;;;;5.60;3.70;;;28.20;71.70;;;;;;5061493;28;20068;-83
2022/09/23 09:39:13;;;;;;;6.53;3.85;;;28.30;67.90;;;;;;5042757;28;20044;-83
2022/09/23 09:41:51;;;;;;;5.97;3.60;;;29.00;65.70;;;;;;5067930;28;20013;-84
2022/09/23 09:44:25;;;;;;;5.03;3.22;;;29.00;64.10;;;;;;5074087;28;20122;-83
2022/09/23 09:47:07;;;;;;;6.43;3.63;;;28.50;63.80;;;;;;5074656;28;20040;-84
2022/09/23 09:49:41;;;;;;;5.38;3.10;;;28.90;63.20;;;;;;5056671;28;20037;-86
2022/09/23 09:52:25;;;;;;;8.75;3.17;;;29.00;63.30;;;;;;5040647;28;20055;-86
2022/09/23 09:54:51;;;;;;;7.97;3.20;;;29.30;61.20;;;;;;5067139;28;20033;-85
2022/09/23 09:57:30;;;;;;;3.58;2.70;;;30.00;60.70;;;;;;5068073;28;20455;-85
2022/09/23 09:59:56;;;;;;;2.85;2.58;;;30.90;59.10;;;;;;5050486;28;20029;-85
2022/09/23 10:02:31;;;;;;;5.00;2.83;;;32.10;57.00;;;;;;5065888;28;20021;-84
2022/09/23 10:05:06;;;;;;;4.53;2.55;;;32.90;55.00;;;;;;5067846;28;20047;-83
2022/09/23 10:07:33;;;;;;;5.82;2.80;;;32.60;54.50;;;;;;5068603;28;20108;-83
2022/09/23 10:10:19;;;;;;;3.55;2.10;;;31.80;53.90;;;;;;5068994;28;20021;-84
2022/09/23 10:12:48;;;;;;;5.45;2.40;;;32.20;53.90;;;;;;5055192;28;20033;-86
2022/09/23 10:15:30;;;;;;;3.70;2.40;;;33.20;53.10;;;;;;5052459;28;20033;-85
2022/09/23 10:18:00;;;;;;;2.95;2.25;;;32.80;52.30;;;;;;5067982;28;20036;-85
2022/09/23 10:20:35;;;;;;;4.10;2.78;;;33.30;52.00;;;;;;5070567;28;20060;-83
2022/09/23 10:23:07;;;;;;;3.00;1.85;;;33.20;51.00;;;;;;5066857;28;20027;-84
2022/09/23 10:25:35;;;;;;;2.67;2.03;;;32.70;51.60;;;;;;5069255;28;20045;-84
2022/09/23 10:28:42;;;;;;;3.42;2.20;;;32.90;50.10;;;;;;5053648;28;20073;-84
2022/09/23 10:31:29;;;;;;;3.55;2.10;;;33.60;50.10;;;;;;5056579;28;20025;-84
2022/09/23 10:34:19;;;;;;;3.40;1.85;;;33.20;49.80;;;;;;5043205;28;20029;-86
2022/09/23 10:37:06;;;;;;;2.60;1.83;;;33.10;50.30;;;;;;5046459;28;20033;-87
2022/09/23 10:48:59;;;;;;;1.92;1.65;;;32.00;49.70;;;;;;5064419;28;20044;-85
2022/09/23 10:51:47;;;;;;;2.22;1.85;;;33.30;48.90;;;;;;5071701;28;20029;-85
2022/09/23 10:54:31;;;;;;;4.60;2.08;;;33.40;47.30;;;;;;5076724;28;20096;-85
2022/09/23 10:57:36;;;;;;;3.85;1.98;;;32.20;48.10;;;;;;5078736;28;20021;-85
2022/09/23 10:59:56;;;;;;;4.22;2.30;;;31.00;49.20;;;;;;5071448;28;20033;-85
2022/09/23 11:02:53;;;;;;;3.15;1.95;;;30.90;49.70;;;;;;5070088;28;20021;-85
2022/09/23 11:05:18;;;;;;;2.85;2.15;;;32.40;49.20;;;;;;5069098;28;20052;-86
2022/09/23 11:08:02;;;;;;;2.95;1.52;;;33.30;47.70;;;;;;5061081;28;20032;-87
2022/09/23 11:11:08;;;;;;;3.17;2.40;;;33.60;47.30;;;;;;5072692;28;20021;-86
2022/09/23 11:13:52;;;;;;;5.00;2.05;;;33.80;47.10;;;;;;5068493;28;20175;-89
2022/09/23 11:16:28;;;;;;;3.17;1.90;;;33.50;47.50;;;;;;5049996;28;20099;-85
2022/09/23 11:19:20;;;;;;;4.68;1.85;;;33.90;47.00;;;;;;5063996;28;20049;-88
2022/09/23 11:22:14;;;;;;;1.67;1.55;;;33.60;46.20;;;;;;5055087;28;20021;-86
2022/09/23 11:24:46;;;;;;;2.40;1.92;;;33.80;47.00;;;;;;5064916;28;20063;-87
2022/09/23 11:27:35;;;;;;;2.70;1.88;;;34.00;47.00;;;;;;5056235;28;20028;-86
2022/09/23 11:30:16;;;;;;;2.60;1.77;;;34.20;46.40;;;;;;5067759;28;20048;-86
2022/09/23 11:32:54;;;;;;;1.95;1.70;;;34.60;45.80;;;;;;5071080;28;20033;-87
2022/09/23 11:35:23;;;;;;;2.30;1.65;;;36.00;45.00;;;;;;5050680;28;20033;-84
2022/09/23 11:38:10;;;;;;;4.63;1.80;;;36.00;44.70;;;;;;5056253;28;20036;-86
2022/09/23 11:40:39;;;;;;;2.67;1.38;;;36.60;44.00;;;;;;5058184;28;20084;-84
2022/09/23 11:43:22;;;;;;;3.25;2.00;;;36.10;44.00;;;;;;5057523;28;20032;-86
2022/09/23 11:45:59;;;;;;;3.17;1.55;;;35.10;43.90;;;;;;5071639;28;20040;-86
2022/09/23 11:48:32;;;;;;;2.22;1.55;;;34.80;44.10;;;;;;5071150;28;20500;-86
2022/09/23 11:51:15;;;;;;;2.38;1.90;;;35.60;43.50;;;;;;5069002;28;20044;-86
2022/09/23 11:54:02;;;;;;;7.55;2.10;;;35.60;43.10;;;;;;5067889;28;20029;-85
2022/09/23 11:56:51;;;;;;;3.00;1.48;;;35.00;43.10;;;;;;5068663;28;20032;-86
2022/09/23 11:59:30;;;;;;;2.65;1.70;;;35.50;43.30;;;;;;5073563;22;20084;-80
2022/09/23 12:02:25;;;;;;;2.17;1.70;;;35.90;42.90;;;;;;5018672;28;20040;-80
2022/09/23 12:05:01;;;;;;;2.47;1.83;;;36.10;42.30;;;;;;5019968;28;20026;-81
2022/09/23 12:07:44;;;;;;;1.63;1.45;;;36.00;42.40;;;;;;5024252;28;20045;-80
2022/09/23 12:10:11;;;;;;;3.60;1.57;;;36.10;41.90;;;;;;5025079;28;20117;-82
2022/09/23 12:13:04;;;;;;;2.13;1.60;;;36.40;41.80;;;;;;5019404;28;20022;-83
2022/09/23 12:15:56;;;;;;;3.08;1.50;;;36.60;41.20;;;;;;5019456;28;20056;-80
2022/09/23 12:18:41;;;;;;;1.77;1.58;;;36.90;41.20;;;;;;5021645;28;20097;-81
2022/09/23 12:21:43;;;;;;;2.88;1.77;;;36.80;41.10;;;;;;5025250;28;20029;-84
2022/09/23 12:24:41;;;;;;;3.08;2.40;;;37.00;40.90;;;;;;5021862;28;20037;-80
2022/09/23 12:27:14;;;;;;;1.77;1.52;;;33.60;41.70;;;;;;5018609;28;20209;-82
2022/09/23 12:29:40;;;;;;;2.55;1.70;;;33.50;43.10;;;;;;5022413;28;20094;-80
2022/09/23 12:32:08;;;;;;;1.35;1.25;;;34.30;42.40;;;;;;5022145;28;20026;-81
2022/09/23 12:34:47;;;;;;;2.95;1.60;;;35.40;41.70;;;;;;5020087;28;20034;-83
2022/09/23 12:37:24;;;;;;;2.88;1.65;;;35.40;40.90;;;;;;5004269;28;20720;-82
2022/09/23 12:39:50;;;;;;;4.00;1.77;;;36.00;40.80;;;;;;5022110;28;20089;-80
2022/09/23 12:42:21;;;;;;;4.07;1.80;;;36.20;40.60;;;;;;5020656;28;20520;-82
2022/09/23 12:44:48;;;;;;;1.77;1.17;;;36.40;40.10;;;;;;5019803;28;20049;-82
2022/09/23 12:47:13;;;;;;;2.58;1.52;;;36.70;40.10;;;;;;5022133;28;20030;-82
2022/09/23 12:49:41;;;;;;;3.33;1.50;;;37.40;39.30;;;;;;5019275;28;20165;-83
2022/09/23 12:52:09;;;;;;;1.85;1.55;;;37.40;39.20;;;;;;5019130;28;20053;-81
2022/09/23 12:54:37;;;;;;;2.63;1.60;;;37.40;39.80;;;;;;5018481;28;20233;-81
2022/09/23 12:57:08;;;;;;;4.65;2.30;;;37.50;39.70;;;;;;5018043;28;20026;-80
2022/09/23 12:59:56;;;;;;;3.17;1.67;;;37.10;39.80;;;;;;5018092;28;20026;-82
2022/09/23 13:02:30;;;;;;;2.47;1.88;;;36.20;40.10;;;;;;5021892;28;20117;-81
2022/09/23 13:08:22;;;;;;;2.42;1.55;;;36.80;40.40;;;;;;5017848;28;20088;-82
2022/09/23 13:10:54;;;;;;;7.55;1.60;;;37.20;39.80;;;;;;5016851;28;20038;-81
2022/09/23 13:13:31;;;;;;;4.28;1.60;;;37.00;39.60;;;;;;5017991;28;20041;-81
2022/09/23 13:16:21;;;;;;;5.05;1.85;;;36.30;39.80;;;;;;5017371;28;20077;-82
2022/09/23 13:18:54;;;;;;;2.85;1.60;;;36.10;40.20;;;;;;5016383;28;20474;-81
2022/09/23 13:21:48;;;;;;;2.30;1.60;;;36.50;39.90;;;;;;5015672;28;20060;-81
2022/09/23 13:24:18;;;;;;;2.38;1.58;;;36.20;40.00;;;;;;5015618;28;20038;-81
2022/09/23 13:26:46;;;;;;;3.20;1.48;;;36.30;40.40;;;;;;5021689;28;20030;-79
2022/09/23 13:29:24;;;;;;;3.47;1.80;;;35.80;40.40;;;;;;4998307;28;20050;-83
2022/09/23 13:31:50;;;;;;;5.00;1.55;;;35.20;40.40;;;;;;5003856;28;20052;-81
2022/09/23 13:34:21;;;;;;;2.10;1.60;;;35.20;40.60;;;;;;5017882;28;20482;-81
2022/09/23 13:36:48;;;;;;;4.50;1.75;;;35.70;40.20;;;;;;5017827;28;20485;-82